createdAt,value
2022-09-15T00:01:12.812Z,100.00
2022-09-15T00:04:00.380Z,100.00
2022-09-15T00:06:44.943Z,100.00
2022-09-15T00:09:33.757Z,100.00
2022-09-15T00:12:17.126Z,100.00
2022-09-15T00:15:06.825Z,100.00
2022-09-15T00:17:49.702Z,100.00
2022-09-15T00:20:37.033Z,100.00
2022-09-15T00:23:18.835Z,100.00
2022-09-15T00:26:06.930Z,100.00
2022-09-15T00:28:49.390Z,100.00
2022-09-15T00:31:36.718Z,100.00
2022-09-15T00:34:19.848Z,100.00
2022-09-15T00:37:10.095Z,100.00
2022-09-15T00:39:52.795Z,100.00
2022-09-15T00:42:40.731Z,100.00
2022-09-15T00:45:23.920Z,100.00
2022-09-15T00:48:21.738Z,100.00
2022-09-15T00:51:07.156Z,100.00
2022-09-15T00:54:00.116Z,100.00
2022-09-15T00:56:42.864Z,100.00
2022-09-15T00:59:37.484Z,100.00
2022-09-15T01:02:34.364Z,100.00
2022-09-15T01:05:24.851Z,100.00
2022-09-15T01:08:28.849Z,100.00
2022-09-15T01:11:17.540Z,100.00
2022-09-15T01:14:05.771Z,100.00
2022-09-15T01:17:18.098Z,100.00
2022-09-15T01:20:05.855Z,100.00
2022-09-15T01:23:13.104Z,100.00
2022-09-15T01:26:42.398Z,100.00
2022-09-15T01:29:44.746Z,100.00
2022-09-15T01:33:01.431Z,100.00
2022-09-15T01:35:50.763Z,100.00
2022-09-15T01:39:08.016Z,100.00
2022-09-15T01:41:56.037Z,100.00
2022-09-15T01:45:00.083Z,100.00
2022-09-15T01:47:43.146Z,100.00
2022-09-15T01:50:38.139Z,100.00
2022-09-15T01:53:24.134Z,100.00
2022-09-15T01:56:18.847Z,100.00
2022-09-15T01:59:00.769Z,100.00
2022-09-15T02:01:57.472Z,100.00
2022-09-15T02:05:00.532Z,100.00
2022-09-15T02:08:11.931Z,100.00
2022-09-15T02:11:06.838Z,100.00
2022-09-15T02:14:20.934Z,100.00
2022-09-15T02:17:05.172Z,100.00
2022-09-15T02:20:04.871Z,100.00
2022-09-15T02:22:48.023Z,100.00
2022-09-15T02:25:41.068Z,100.00
2022-09-15T02:28:25.831Z,100.00
2022-09-15T02:31:18.951Z,100.00
2022-09-15T02:34:09.784Z,100.00
2022-09-15T02:37:00.718Z,100.00
2022-09-15T02:39:46.828Z,100.00
2022-09-15T02:42:36.914Z,100.00
2022-09-15T02:45:18.661Z,100.00
2022-09-15T02:48:06.025Z,100.00
2022-09-15T02:50:48.190Z,100.00
2022-09-15T02:53:36.779Z,100.00
2022-09-15T02:56:17.840Z,100.00
2022-09-15T02:59:06.610Z,100.00
2022-09-15T03:01:48.858Z,100.00
2022-09-15T03:04:35.894Z,100.00
2022-09-15T03:07:16.793Z,100.00
2022-09-15T03:10:05.943Z,100.00
2022-09-15T03:12:54.790Z,100.00
2022-09-15T03:15:41.916Z,100.00
2022-09-15T03:18:22.818Z,100.00
2022-09-15T03:21:13.349Z,100.00
2022-09-15T03:23:54.641Z,100.00
2022-09-15T03:26:41.928Z,100.00
2022-09-15T03:29:23.433Z,100.00
2022-09-15T03:32:10.967Z,100.00
2022-09-15T03:34:54.192Z,100.00
2022-09-15T03:37:46.958Z,100.00
2022-09-15T03:40:28.257Z,100.00
2022-09-15T03:43:18.953Z,100.00
2022-09-15T03:46:02.202Z,100.00
2022-09-15T03:48:48.950Z,100.00
2022-09-15T03:51:30.423Z,100.00
2022-09-15T03:54:18.684Z,100.00
2022-09-15T03:56:59.841Z,100.00
2022-09-15T03:59:46.944Z,100.00
2022-09-15T04:02:29.352Z,100.00
2022-09-15T04:05:18.473Z,100.00
2022-09-15T04:07:59.617Z,100.00
2022-09-15T04:10:48.320Z,100.00
2022-09-15T04:13:42.919Z,100.00
2022-09-15T04:16:34.077Z,100.00
2022-09-15T04:19:15.942Z,100.00
2022-09-15T04:22:04.006Z,100.00
2022-09-15T04:24:45.150Z,100.00
2022-09-15T04:27:36.495Z,100.00
2022-09-15T04:30:19.590Z,100.00
2022-09-15T04:33:05.975Z,100.00
2022-09-15T04:35:49.108Z,100.00
2022-09-15T04:38:37.008Z,100.00
2022-09-15T04:41:19.240Z,100.00
2022-09-15T04:44:05.988Z,100.00
2022-09-15T04:46:46.928Z,100.00
2022-09-15T04:49:35.351Z,100.00
2022-09-15T04:52:15.854Z,100.00
2022-09-15T04:55:03.005Z,100.00
2022-09-15T04:57:47.280Z,100.00
2022-09-15T05:00:43.746Z,100.00
2022-09-15T05:03:25.866Z,100.00
2022-09-15T05:06:15.004Z,100.00
2022-09-15T05:08:57.272Z,100.00
2022-09-15T05:11:45.938Z,100.00
2022-09-15T05:14:41.661Z,100.00
2022-09-15T05:17:30.007Z,100.00
2022-09-15T05:20:11.999Z,100.00
2022-09-15T05:23:02.154Z,100.00
2022-09-15T05:25:44.046Z,100.00
2022-09-15T05:28:32.055Z,100.00
2022-09-15T05:31:20.275Z,100.00
2022-09-15T05:34:11.482Z,100.00
2022-09-15T05:36:53.871Z,100.00
2022-09-15T05:39:42.078Z,100.00
2022-09-15T05:42:23.883Z,100.00
2022-09-15T05:45:12.427Z,100.00
2022-09-15T05:47:53.661Z,100.00
2022-09-15T05:50:42.017Z,100.00
2022-09-15T05:53:23.736Z,100.00
2022-09-15T05:56:17.157Z,100.00
2022-09-15T05:58:57.918Z,100.00
2022-09-15T06:01:45.389Z,100.00
2022-09-15T06:04:26.675Z,100.00
2022-09-15T06:07:29.942Z,100.00
2022-09-15T06:10:17.929Z,100.00
2022-09-15T06:13:00.092Z,100.00
2022-09-15T06:15:47.998Z,100.00
2022-09-15T06:18:30.163Z,100.00
2022-09-15T06:21:21.290Z,100.00
2022-09-15T06:24:04.570Z,100.00
2022-09-15T06:26:50.944Z,94.56
2022-09-15T06:29:32.866Z,91.22
2022-09-15T06:32:21.981Z,89.45
2022-09-15T06:35:07.439Z,90.44
2022-09-15T06:37:55.359Z,92.55
2022-09-15T06:40:40.260Z,93.07
2022-09-15T06:43:29.696Z,94.36
2022-09-15T06:46:13.188Z,94.33
2022-09-15T06:49:00.227Z,92.54
2022-09-15T06:51:42.159Z,88.39
2022-09-15T06:54:30.926Z,84.19
2022-09-15T06:57:12.093Z,81.51
2022-09-15T07:00:00.734Z,80.44
2022-09-15T07:02:42.184Z,81.43
2022-09-15T07:05:32.686Z,83.78
2022-09-15T07:08:13.076Z,85.96
2022-09-15T07:11:03.476Z,87.21
2022-09-15T07:13:56.961Z,88.00
2022-09-15T07:16:45.485Z,88.21
2022-09-15T07:19:26.081Z,89.50
2022-09-15T07:22:14.537Z,88.54
2022-09-15T07:24:55.147Z,88.96
2022-09-15T07:27:45.023Z,90.48
2022-09-15T07:30:26.104Z,91.52
2022-09-15T07:33:14.722Z,92.48
2022-09-15T07:35:57.283Z,92.26
2022-09-15T07:38:47.987Z,91.10
2022-09-15T07:41:31.064Z,86.17
2022-09-15T07:44:20.735Z,81.36
2022-09-15T07:47:02.169Z,76.10
2022-09-15T07:49:51.131Z,72.75
2022-09-15T07:52:32.275Z,70.50
2022-09-15T07:55:19.433Z,70.52
2022-09-15T07:58:07.147Z,70.63
2022-09-15T08:00:56.453Z,70.90
2022-09-15T08:03:37.080Z,71.49
2022-09-15T08:06:28.797Z,71.98
2022-09-15T08:09:14.851Z,71.54
2022-09-15T08:12:04.971Z,69.23
2022-09-15T08:14:53.121Z,67.41
2022-09-15T08:17:35.010Z,66.89
2022-09-15T08:20:23.132Z,66.96
2022-09-15T08:23:05.748Z,67.91
2022-09-15T08:25:54.152Z,67.64
2022-09-15T08:28:35.067Z,69.38
2022-09-15T08:31:25.146Z,71.01
2022-09-15T08:34:10.031Z,72.16
2022-09-15T08:36:59.119Z,72.35
2022-09-15T08:39:40.065Z,71.91
2022-09-15T08:42:30.635Z,71.72
2022-09-15T08:45:22.031Z,70.58
2022-09-15T08:48:15.803Z,67.65
2022-09-15T08:51:01.478Z,65.77
2022-09-15T08:54:01.621Z,61.93
2022-09-15T08:59:57.517Z,54.84
2022-09-15T09:02:44.141Z,51.32
2022-09-15T09:05:57.508Z,51.12
2022-09-15T09:09:06.751Z,51.67
2022-09-15T09:12:15.624Z,53.28
2022-09-15T09:15:29.111Z,56.13
2022-09-15T09:18:29.460Z,58.10
2022-09-15T09:21:22.367Z,59.92
2022-09-15T09:24:14.271Z,59.59
2022-09-15T09:26:58.431Z,56.68
2022-09-15T09:29:56.543Z,53.60
2022-09-15T09:32:52.047Z,54.47
2022-09-15T09:35:52.364Z,55.49
2022-09-15T09:38:42.034Z,56.43
2022-09-15T09:41:36.453Z,56.13
2022-09-15T09:44:19.033Z,55.47
2022-09-15T09:47:09.163Z,54.05
2022-09-15T09:49:56.417Z,52.67
2022-09-15T09:52:46.755Z,51.71
2022-09-15T09:55:33.279Z,51.08
2022-09-15T09:58:26.211Z,50.70
2022-09-15T10:01:17.144Z,49.55
2022-09-15T10:04:29.611Z,49.42
2022-09-15T10:07:12.192Z,50.01
2022-09-15T10:10:06.190Z,50.80
2022-09-15T10:12:48.297Z,51.65
2022-09-15T10:15:38.592Z,52.81
2022-09-15T10:18:42.695Z,54.44
2022-09-15T10:21:32.185Z,54.71
2022-09-15T10:24:40.079Z,55.97
2022-09-15T10:27:33.682Z,56.70
2022-09-15T10:30:20.536Z,57.86
2022-09-15T10:33:44.927Z,58.04
2022-09-15T10:36:35.141Z,58.56
2022-09-15T10:39:39.387Z,57.20
2022-09-15T10:42:31.510Z,56.06
2022-09-15T10:45:31.241Z,54.68
2022-09-15T10:48:18.069Z,55.20
2022-09-15T10:51:31.111Z,57.30
2022-09-15T10:54:41.833Z,58.33
2022-09-15T10:57:50.215Z,58.75
2022-09-15T11:00:35.171Z,59.49
2022-09-15T11:03:42.168Z,59.01
2022-09-15T11:06:26.840Z,57.99
2022-09-15T11:09:31.193Z,57.05
2022-09-15T11:12:28.902Z,55.05
2022-09-15T11:15:40.392Z,52.91
2022-09-15T11:18:51.121Z,52.21
2022-09-15T11:21:46.681Z,50.45
2022-09-15T11:24:50.221Z,51.46
2022-09-15T11:27:48.985Z,51.21
2022-09-15T11:30:32.871Z,49.60
2022-09-15T11:33:31.241Z,50.82
2022-09-15T11:36:27.170Z,53.17
2022-09-15T11:39:29.503Z,53.94
2022-09-15T11:42:24.124Z,53.35
2022-09-15T11:45:33.210Z,53.61
2022-09-15T11:48:42.165Z,56.48
2022-09-15T11:51:31.370Z,54.05
2022-09-15T11:54:24.173Z,54.53
2022-09-15T11:57:13.273Z,56.58
2022-09-15T12:00:16.489Z,54.83
2022-09-15T12:03:10.997Z,55.36
2022-09-15T12:06:00.630Z,55.50
2022-09-15T12:08:57.230Z,54.98
2022-09-15T12:11:43.129Z,54.44
2022-09-15T12:14:48.114Z,55.00
2022-09-15T12:17:46.883Z,54.95
2022-09-15T12:21:06.257Z,54.73
2022-09-15T12:24:03.190Z,54.96
2022-09-15T12:26:52.903Z,55.60
2022-09-15T12:29:51.555Z,56.10
2022-09-15T12:32:35.036Z,56.44
2022-09-15T12:35:26.973Z,55.97
2022-09-15T12:38:08.642Z,56.83
2022-09-15T12:41:07.655Z,57.72
2022-09-15T12:44:02.488Z,58.19
2022-09-15T12:46:59.283Z,58.33
2022-09-15T12:49:53.696Z,57.84
2022-09-15T12:52:55.153Z,58.02
2022-09-15T12:55:43.280Z,56.61
2022-09-15T12:58:44.644Z,55.93
2022-09-15T13:01:27.483Z,56.72
2022-09-15T13:04:19.368Z,55.94
2022-09-15T13:07:23.333Z,54.05
2022-09-15T13:10:13.241Z,54.46
2022-09-15T13:13:08.296Z,54.50
2022-09-15T13:16:14.004Z,53.41
2022-09-15T13:19:19.350Z,51.21
2022-09-15T13:22:18.195Z,51.41
2022-09-15T13:25:08.690Z,51.42
2022-09-15T13:27:59.575Z,52.14
2022-09-15T13:31:04.344Z,53.95
2022-09-15T13:38:16.832Z,54.75
2022-09-15T13:41:30.204Z,55.40
2022-09-15T13:44:54.996Z,54.79
2022-09-15T13:48:09.426Z,53.58
2022-09-15T13:51:06.094Z,52.49
2022-09-15T13:53:53.385Z,52.44
2022-09-15T13:56:47.590Z,53.65
2022-09-15T13:59:36.215Z,54.75
2022-09-15T14:02:26.487Z,55.23
2022-09-15T14:05:07.583Z,55.24
2022-09-15T14:08:04.351Z,55.77
2022-09-15T14:10:57.948Z,56.54
2022-09-15T14:13:52.280Z,57.02
2022-09-15T14:16:51.217Z,57.41
2022-09-15T14:19:44.344Z,57.05
2022-09-15T14:22:35.192Z,56.36
2022-09-15T14:25:23.409Z,55.73
2022-09-15T14:28:04.231Z,55.68
2022-09-15T14:30:58.402Z,56.45
2022-09-15T14:33:46.616Z,57.12
2022-09-15T14:36:40.703Z,56.91
2022-09-15T14:39:28.632Z,55.11
2022-09-15T14:42:29.675Z,55.44
2022-09-15T14:48:28.056Z,54.69
2022-09-15T14:51:17.279Z,55.16
2022-09-15T14:54:07.399Z,55.72
2022-09-15T14:56:52.202Z,55.89
2022-09-15T14:59:56.508Z,55.58
2022-09-15T15:02:56.428Z,55.75
2022-09-15T15:05:48.378Z,56.48
2022-09-15T15:08:49.231Z,56.68
2022-09-15T15:11:39.850Z,56.23
2022-09-15T15:17:33.490Z,56.18
2022-09-15T15:20:15.233Z,57.02
2022-09-15T15:23:25.948Z,57.46
2022-09-15T15:26:41.262Z,57.84
2022-09-15T15:29:53.373Z,57.98
2022-09-15T15:32:34.251Z,58.19
2022-09-15T15:35:30.715Z,57.58
2022-09-15T15:38:11.272Z,57.34
2022-09-15T15:41:08.450Z,56.18
2022-09-15T15:44:01.656Z,55.21
2022-09-15T15:47:00.444Z,55.22
2022-09-15T15:50:02.313Z,55.59
2022-09-15T15:52:49.575Z,56.52
2022-09-15T15:55:37.815Z,56.46
2022-09-15T15:58:28.061Z,57.43
2022-09-15T16:01:09.304Z,57.40
2022-09-15T16:03:56.546Z,56.87
2022-09-15T16:06:37.974Z,56.73
2022-09-15T16:09:32.782Z,56.98
2022-09-15T16:12:16.571Z,56.94
2022-09-15T16:15:10.247Z,57.19
2022-09-15T16:17:57.696Z,56.96
2022-09-15T16:20:39.191Z,56.54
2022-09-15T16:23:34.553Z,55.72
2022-09-15T16:26:18.387Z,55.47
2022-09-15T16:29:05.286Z,55.46
2022-09-15T16:31:47.156Z,55.65
2022-09-15T16:34:35.281Z,54.77
2022-09-15T16:37:17.514Z,54.98
2022-09-15T16:40:06.371Z,55.08
2022-09-15T16:42:50.980Z,55.27
2022-09-15T16:45:45.284Z,55.87
2022-09-15T16:48:27.368Z,56.55
2022-09-15T16:51:29.803Z,57.03
2022-09-15T16:54:22.952Z,56.60
2022-09-15T16:57:11.480Z,57.19
2022-09-15T16:59:52.412Z,57.89
2022-09-15T17:02:41.977Z,58.58
2022-09-15T17:05:35.541Z,59.54
2022-09-15T17:08:24.305Z,60.70
2022-09-15T17:11:08.409Z,61.89
2022-09-15T17:13:56.321Z,62.85
2022-09-15T17:16:47.406Z,63.75
2022-09-15T17:19:28.332Z,64.11
2022-09-15T17:22:16.456Z,65.04
2022-09-15T17:24:57.362Z,66.07
2022-09-15T17:27:46.505Z,66.42
2022-09-15T17:30:29.326Z,65.96
2022-09-15T17:33:20.477Z,66.03
2022-09-15T17:36:04.852Z,65.55
2022-09-15T17:38:51.520Z,65.61
2022-09-15T17:41:32.358Z,66.60
2022-09-15T17:44:19.787Z,66.96
2022-09-15T17:47:00.318Z,66.81
2022-09-15T17:49:47.502Z,66.42
2022-09-15T17:52:30.307Z,66.64
2022-09-15T17:55:35.466Z,66.54
2022-09-15T17:58:18.780Z,68.02
2022-09-15T18:01:07.153Z,68.48
2022-09-15T18:03:50.721Z,68.90
2022-09-15T18:06:44.747Z,68.34
2022-09-15T18:09:26.706Z,67.35
2022-09-15T18:12:15.074Z,67.17
2022-09-15T18:15:09.130Z,67.78
2022-09-15T18:18:03.799Z,68.09
2022-09-15T18:20:45.369Z,67.96
2022-09-15T18:23:35.240Z,68.46
2022-09-15T18:26:17.225Z,68.35
2022-09-15T18:29:06.492Z,68.72
2022-09-15T18:31:48.839Z,67.51
2022-09-15T18:34:39.015Z,67.33
2022-09-15T18:37:19.363Z,67.36
2022-09-15T18:40:08.925Z,67.45
2022-09-15T18:42:52.990Z,67.73
2022-09-15T18:45:42.503Z,67.45
2022-09-15T18:48:24.747Z,67.66
2022-09-15T18:51:24.143Z,68.43
2022-09-15T18:54:10.385Z,68.78
2022-09-15T18:56:59.348Z,68.86
2022-09-15T18:59:40.511Z,68.83
2022-09-15T19:02:29.641Z,68.97
2022-09-15T19:05:10.975Z,68.74
2022-09-15T19:07:58.493Z,68.40
2022-09-15T19:10:41.493Z,67.28
2022-09-15T19:13:28.999Z,67.92
2022-09-15T19:16:34.504Z,67.55
2022-09-15T19:19:33.727Z,68.01
2022-09-15T19:22:14.367Z,68.37
2022-09-15T19:25:03.552Z,68.50
2022-09-15T19:27:48.083Z,68.45
2022-09-15T19:30:35.001Z,68.83
2022-09-15T19:36:29.044Z,68.88
2022-09-15T19:39:10.438Z,68.92
2022-09-15T19:41:58.684Z,68.83
2022-09-15T19:44:40.397Z,69.15
2022-09-15T19:47:28.497Z,68.31
2022-09-15T19:50:15.392Z,68.74
2022-09-15T19:53:02.851Z,67.97
2022-09-15T19:55:43.402Z,68.32
2022-09-15T19:58:30.507Z,67.92
2022-09-15T20:01:11.864Z,66.78
2022-09-15T20:04:02.032Z,68.31
2022-09-15T20:06:44.907Z,68.89
2022-09-15T20:09:32.670Z,69.06
2022-09-15T20:12:14.461Z,69.29
2022-09-15T20:15:01.981Z,69.30
2022-09-15T20:17:48.415Z,68.49
2022-09-15T20:20:30.271Z,68.43
2022-09-15T20:23:19.596Z,68.68
2022-09-15T20:26:07.844Z,68.48
2022-09-15T20:28:57.398Z,69.01
2022-09-15T20:31:38.535Z,68.08
2022-09-15T20:34:25.418Z,68.34
2022-09-15T20:37:07.991Z,68.83
2022-09-15T20:39:55.530Z,69.17
2022-09-15T20:42:36.800Z,69.37
2022-09-15T20:45:37.230Z,68.33
2022-09-15T20:48:24.550Z,68.68
2022-09-15T20:51:14.451Z,69.27
2022-09-15T20:54:04.121Z,69.25
2022-09-15T20:56:46.222Z,69.63
2022-09-15T20:59:35.192Z,69.08
2022-09-15T21:02:19.001Z,68.99
2022-09-15T21:05:06.789Z,68.65
2022-09-15T21:07:50.425Z,68.56
2022-09-15T21:10:39.945Z,68.59
2022-09-15T21:13:20.568Z,68.53
2022-09-15T21:16:15.668Z,68.39
2022-09-15T21:19:04.499Z,68.53
2022-09-15T21:21:46.602Z,69.37
2022-09-15T21:24:35.899Z,69.60
2022-09-15T21:27:27.073Z,69.92
2022-09-15T21:30:13.820Z,70.42
2022-09-15T21:32:56.470Z,70.41
2022-09-15T21:35:43.512Z,71.04
2022-09-15T21:38:25.708Z,71.51
2022-09-15T21:41:14.831Z,71.21
2022-09-15T21:43:58.382Z,71.45
2022-09-15T21:46:47.450Z,71.44
2022-09-15T21:49:28.607Z,71.91
2022-09-15T21:52:17.579Z,71.64
2022-09-15T21:55:00.456Z,71.63
2022-09-15T21:57:49.479Z,71.60
2022-09-15T22:00:30.715Z,71.54
2022-09-15T22:03:17.981Z,71.83
2022-09-15T22:05:59.407Z,72.21
2022-09-15T22:08:47.532Z,72.35
2022-09-15T22:11:29.620Z,72.21
2022-09-15T22:14:18.889Z,72.10
2022-09-15T22:17:10.045Z,71.80
2022-09-15T22:19:50.478Z,72.01
2022-09-15T22:22:38.589Z,72.17
2022-09-15T22:25:21.876Z,72.44
2022-09-15T22:28:10.006Z,72.45
2022-09-15T22:30:50.531Z,72.39
2022-09-15T22:33:43.776Z,72.87
2022-09-15T22:36:29.562Z,73.36
2022-09-15T22:39:18.945Z,73.72
2022-09-15T22:41:59.887Z,74.09
2022-09-15T22:44:47.133Z,74.04
2022-09-15T22:47:28.528Z,74.39
2022-09-15T22:50:16.780Z,74.52
2022-09-15T22:52:58.585Z,75.16
2022-09-15T22:55:46.831Z,74.67
2022-09-15T22:58:28.493Z,74.94
2022-09-15T23:01:22.146Z,74.85
2022-09-15T23:04:05.880Z,74.90
2022-09-15T23:06:53.639Z,75.38
2022-09-15T23:09:34.506Z,75.37
2022-09-15T23:12:22.152Z,75.49
2022-09-15T23:15:03.540Z,75.23
2022-09-15T23:17:52.685Z,75.26
2022-09-15T23:20:35.024Z,75.73
2022-09-15T23:23:23.268Z,75.72
2022-09-15T23:26:04.540Z,76.26
2022-09-15T23:28:51.626Z,76.27
2022-09-15T23:31:38.245Z,76.68
2022-09-15T23:34:26.429Z,76.89
2022-09-15T23:37:07.511Z,77.43
2022-09-15T23:39:55.951Z,77.64
2022-09-15T23:42:38.291Z,77.82
2022-09-15T23:45:27.152Z,78.04
2022-09-15T23:48:08.567Z,78.37
2022-09-15T23:50:56.633Z,78.11
2022-09-15T23:53:37.934Z,78.83
2022-09-15T23:56:25.071Z,79.08
2022-09-15T23:59:05.552Z,79.29
